sensor_id;sensor_type;location;lat;lon;timestamp;pressure;altitude;pressure_sealevel;temperature;humidity
76853;BME280;65825;52.232;10.566;2024-01-10T00:01:14;102552.84;;;-4.84;63.81
76853;BME280;65825;52.232;10.566;2024-01-10T00:03:39;102553.66;;;-4.85;65.25
76853;BME280;65825;52.232;10.566;2024-01-10T00:06:05;102554.97;;;-4.91;64.31
76853;BME280;65825;52.232;10.566;2024-01-10T00:08:30;102547.16;;;-4.78;64.65
76853;BME280;65825;52.232;10.566;2024-01-10T00:10:55;102546.41;;;-5.19;66.21
76853;BME280;65825;52.232;10.566;2024-01-10T00:13:21;102545.22;;;-4.82;65.53
76853;BME280;65825;52.232;10.566;2024-01-10T00:15:48;102512.25;;;-4.73;64.91
76853;BME280;65825;52.232;10.566;2024-01-10T00:18:13;102528.88;;;-4.68;64.25
76853;BME280;65825;52.232;10.566;2024-01-10T00:20:38;102538.75;;;-4.47;63.58
76853;BME280;65825;52.232;10.566;2024-01-10T00:23:04;102532.50;;;-4.36;63.14
76853;BME280;65825;52.232;10.566;2024-01-10T00:25:29;102535.00;;;-4.52;63.65
76853;BME280;65825;52.232;10.566;2024-01-10T00:27:55;102534.38;;;-4.33;63.05
76853;BME280;65825;52.232;10.566;2024-01-10T00:30:21;102536.13;;;-4.32;62.29
76853;BME280;65825;52.232;10.566;2024-01-10T00:32:46;102529.50;;;-4.43;62.86
76853;BME280;65825;52.232;10.566;2024-01-10T00:35:11;102536.44;;;-4.57;62.57
76853;BME280;65825;52.232;10.566;2024-01-10T00:37:37;102529.50;;;-4.58;63.08
76853;BME280;65825;52.232;10.566;2024-01-10T00:40:02;102521.53;;;-4.62;63.73
76853;BME280;65825;52.232;10.566;2024-01-10T00:42:27;102517.91;;;-5.08;64.24
76853;BME280;65825;52.232;10.566;2024-01-10T00:44:52;102511.91;;;-4.79;64.44
76853;BME280;65825;52.232;10.566;2024-01-10T00:47:18;102527.28;;;-4.66;64.12
76853;BME280;65825;52.232;10.566;2024-01-10T00:49:43;102524.38;;;-4.72;64.00
76853;BME280;65825;52.232;10.566;2024-01-10T00:52:08;102515.28;;;-4.80;63.96
76853;BME280;65825;52.232;10.566;2024-01-10T00:54:33;102519.22;;;-4.72;63.95
76853;BME280;65825;52.232;10.566;2024-01-10T00:56:59;102506.34;;;-4.72;63.92
76853;BME280;65825;52.232;10.566;2024-01-10T00:59:24;102502.84;;;-4.73;63.86
76853;BME280;65825;52.232;10.566;2024-01-10T01:01:49;102505.84;;;-4.51;63.11
76853;BME280;65825;52.232;10.566;2024-01-10T01:04:14;102514.41;;;-4.66;64.08
76853;BME280;65825;52.232;10.566;2024-01-10T01:06:40;102510.41;;;-4.61;63.06
76853;BME280;65825;52.232;10.566;2024-01-10T01:09:05;102515.66;;;-4.45;63.96
76853;BME280;65825;52.232;10.566;2024-01-10T01:11:30;102517.09;;;-4.65;64.14
76853;BME280;65825;52.232;10.566;2024-01-10T01:13:55;102514.31;;;-4.53;64.26
76853;BME280;65825;52.232;10.566;2024-01-10T01:16:21;102516.50;;;-4.45;63.15
76853;BME280;65825;52.232;10.566;2024-01-10T01:18:46;102522.75;;;-4.41;63.11
76853;BME280;65825;52.232;10.566;2024-01-10T01:21:11;102511.47;;;-4.58;62.77
76853;BME280;65825;52.232;10.566;2024-01-10T01:23:37;102521.50;;;-4.48;62.11
76853;BME280;65825;52.232;10.566;2024-01-10T01:26:02;102532.09;;;-4.58;62.55
76853;BME280;65825;52.232;10.566;2024-01-10T01:28:29;102525.94;;;-4.74;62.46
76853;BME280;65825;52.232;10.566;2024-01-10T01:30:54;102514.22;;;-4.84;63.67
76853;BME280;65825;52.232;10.566;2024-01-10T01:33:19;102516.00;;;-4.83;63.22
76853;BME280;65825;52.232;10.566;2024-01-10T01:35:45;102520.13;;;-4.99;64.39
76853;BME280;65825;52.232;10.566;2024-01-10T01:38:10;102520.44;;;-4.95;63.54
76853;BME280;65825;52.232;10.566;2024-01-10T01:40:35;102522.84;;;-4.69;63.09
76853;BME280;65825;52.232;10.566;2024-01-10T01:43:00;102522.56;;;-4.88;63.13
76853;BME280;65825;52.232;10.566;2024-01-10T01:45:26;102506.75;;;-4.79;62.47
76853;BME280;65825;52.232;10.566;2024-01-10T01:47:51;102515.72;;;-4.73;62.68
76853;BME280;65825;52.232;10.566;2024-01-10T01:50:16;102518.13;;;-4.76;62.25
76853;BME280;65825;52.232;10.566;2024-01-10T01:52:43;102510.38;;;-4.76;61.98
76853;BME280;65825;52.232;10.566;2024-01-10T01:55:09;102506.50;;;-4.84;61.86
76853;BME280;65825;52.232;10.566;2024-01-10T01:57:37;102513.41;;;-4.83;62.14
76853;BME280;65825;52.232;10.566;2024-01-10T02:00:02;102522.81;;;-4.98;62.32
76853;BME280;65825;52.232;10.566;2024-01-10T02:02:28;102517.31;;;-5.04;62.13
76853;BME280;65825;52.232;10.566;2024-01-10T02:04:55;102529.63;;;-5.13;63.63
76853;BME280;65825;52.232;10.566;2024-01-10T02:07:20;102532.66;;;-5.05;62.56
76853;BME280;65825;52.232;10.566;2024-01-10T02:09:45;102517.50;;;-5.01;63.09
76853;BME280;65825;52.232;10.566;2024-01-10T02:12:11;102513.47;;;-5.10;62.36
76853;BME280;65825;52.232;10.566;2024-01-10T02:14:36;102522.97;;;-5.09;63.17
76853;BME280;65825;52.232;10.566;2024-01-10T02:17:01;102516.50;;;-5.03;63.07
76853;BME280;65825;52.232;10.566;2024-01-10T02:19:27;102529.97;;;-5.07;61.97
76853;BME280;65825;52.232;10.566;2024-01-10T02:21:54;102515.25;;;-5.09;61.50
76853;BME280;65825;52.232;10.566;2024-01-10T02:24:21;102508.16;;;-5.13;62.58
76853;BME280;65825;52.232;10.566;2024-01-10T02:26:46;102504.88;;;-5.11;61.63
76853;BME280;65825;52.232;10.566;2024-01-10T02:29:11;102509.38;;;-5.07;61.05
76853;BME280;65825;52.232;10.566;2024-01-10T02:31:36;102508.53;;;-5.07;61.24
76853;BME280;65825;52.232;10.566;2024-01-10T02:34:02;102503.34;;;-5.22;61.33
76853;BME280;65825;52.232;10.566;2024-01-10T02:36:27;102507.97;;;-5.16;62.71
76853;BME280;65825;52.232;10.566;2024-01-10T02:38:52;102492.63;;;-5.15;61.74
76853;BME280;65825;52.232;10.566;2024-01-10T02:41:17;102502.00;;;-5.30;62.50
76853;BME280;65825;52.232;10.566;2024-01-10T02:43:43;102494.72;;;-5.22;61.63
76853;BME280;65825;52.232;10.566;2024-01-10T02:46:08;102496.97;;;-5.14;62.14
76853;BME280;65825;52.232;10.566;2024-01-10T02:48:33;102494.84;;;-5.21;61.82
76853;BME280;65825;52.232;10.566;2024-01-10T02:50:58;102497.56;;;-5.32;62.35
76853;BME280;65825;52.232;10.566;2024-01-10T02:53:24;102486.63;;;-5.43;62.25
76853;BME280;65825;52.232;10.566;2024-01-10T02:55:50;102495.19;;;-5.29;62.11
76853;BME280;65825;52.232;10.566;2024-01-10T02:58:15;102479.19;;;-5.24;62.32
76853;BME280;65825;52.232;10.566;2024-01-10T03:00:40;102483.47;;;-5.24;62.35
76853;BME280;65825;52.232;10.566;2024-01-10T03:03:05;102495.47;;;-5.38;62.40
76853;BME280;65825;52.232;10.566;2024-01-10T03:05:31;102488.47;;;-5.40;63.74
76853;BME280;65825;52.232;10.566;2024-01-10T03:07:56;102497.81;;;-5.28;63.73
76853;BME280;65825;52.232;10.566;2024-01-10T03:10:21;102498.63;;;-5.29;63.20
76853;BME280;65825;52.232;10.566;2024-01-10T03:12:46;102496.84;;;-5.30;63.42
76853;BME280;65825;52.232;10.566;2024-01-10T03:15:12;102493.56;;;-5.27;62.99
76853;BME280;65825;52.232;10.566;2024-01-10T03:17:37;102491.78;;;-5.43;62.42
76853;BME280;65825;52.232;10.566;2024-01-10T03:20:03;102501.66;;;-5.49;63.16
76853;BME280;65825;52.232;10.566;2024-01-10T03:22:30;102494.25;;;-5.44;62.32
76853;BME280;65825;52.232;10.566;2024-01-10T03:24:56;102487.63;;;-5.54;62.42
76853;BME280;65825;52.232;10.566;2024-01-10T03:27:21;102490.34;;;-5.38;62.58
76853;BME280;65825;52.232;10.566;2024-01-10T03:29:46;102489.72;;;-5.34;62.28
76853;BME280;65825;52.232;10.566;2024-01-10T03:32:11;102486.78;;;-5.40;63.12
76853;BME280;65825;52.232;10.566;2024-01-10T03:34:36;102480.75;;;-5.40;62.28
76853;BME280;65825;52.232;10.566;2024-01-10T03:37:02;102476.63;;;-5.51;62.91
76853;BME280;65825;52.232;10.566;2024-01-10T03:39:27;102475.16;;;-5.48;63.90
76853;BME280;65825;52.232;10.566;2024-01-10T03:41:52;102470.72;;;-5.50;64.41
76853;BME280;65825;52.232;10.566;2024-01-10T03:44:17;102478.75;;;-5.59;64.72
76853;BME280;65825;52.232;10.566;2024-01-10T03:46:43;102477.44;;;-5.52;64.56
76853;BME280;65825;52.232;10.566;2024-01-10T03:49:08;102478.03;;;-5.56;64.67
76853;BME280;65825;52.232;10.566;2024-01-10T03:51:33;102478.72;;;-5.46;64.39
76853;BME280;65825;52.232;10.566;2024-01-10T03:53:58;102483.00;;;-5.32;63.27
76853;BME280;65825;52.232;10.566;2024-01-10T03:56:24;102480.59;;;-5.43;63.95
76853;BME280;65825;52.232;10.566;2024-01-10T03:58:49;102477.09;;;-5.44;64.90
76853;BME280;65825;52.232;10.566;2024-01-10T04:01:14;102475.69;;;-5.39;63.20
76853;BME280;65825;52.232;10.566;2024-01-10T04:03:39;102471.00;;;-5.46;63.89
76853;BME280;65825;52.232;10.566;2024-01-10T04:06:09;102469.03;;;-5.35;63.03
76853;BME280;65825;52.232;10.566;2024-01-10T04:08:34;102470.72;;;-5.50;63.09
76853;BME280;65825;52.232;10.566;2024-01-10T04:11:00;102454.31;;;-5.38;62.71
76853;BME280;65825;52.232;10.566;2024-01-10T04:13:26;102458.03;;;-5.33;62.13
76853;BME280;65825;52.232;10.566;2024-01-10T04:15:52;102465.69;;;-5.34;62.85
76853;BME280;65825;52.232;10.566;2024-01-10T04:18:17;102469.03;;;-5.50;63.23
76853;BME280;65825;52.232;10.566;2024-01-10T04:20:42;102464.19;;;-5.45;62.54
76853;BME280;65825;52.232;10.566;2024-01-10T04:23:09;102467.00;;;-5.41;61.60
76853;BME280;65825;52.232;10.566;2024-01-10T04:25:34;102466.03;;;-5.43;61.41
76853;BME280;65825;52.232;10.566;2024-01-10T04:27:59;102467.28;;;-5.64;62.57
76853;BME280;65825;52.232;10.566;2024-01-10T04:30:24;102463.72;;;-5.53;62.24
76853;BME280;65825;52.232;10.566;2024-01-10T04:32:50;102467.97;;;-5.53;63.10
76853;BME280;65825;52.232;10.566;2024-01-10T04:35:15;102458.97;;;-5.60;61.89
76853;BME280;65825;52.232;10.566;2024-01-10T04:37:40;102469.47;;;-5.57;61.49
76853;BME280;65825;52.232;10.566;2024-01-10T04:40:06;102452.88;;;-5.75;61.73
76853;BME280;65825;52.232;10.566;2024-01-10T04:42:31;102469.03;;;-5.77;62.35
76853;BME280;65825;52.232;10.566;2024-01-10T04:44:56;102474.47;;;-5.73;62.01
76853;BME280;65825;52.232;10.566;2024-01-10T04:47:21;102465.59;;;-5.78;61.83
76853;BME280;65825;52.232;10.566;2024-01-10T04:49:47;102469.03;;;-5.77;61.89
76853;BME280;65825;52.232;10.566;2024-01-10T04:52:12;102463.97;;;-5.90;61.52
76853;BME280;65825;52.232;10.566;2024-01-10T04:54:37;102461.28;;;-5.92;62.49
76853;BME280;65825;52.232;10.566;2024-01-10T04:57:03;102463.66;;;-5.95;61.63
76853;BME280;65825;52.232;10.566;2024-01-10T04:59:28;102465.03;;;-5.87;62.39
76853;BME280;65825;52.232;10.566;2024-01-10T05:01:54;102445.91;;;-6.05;62.73
76853;BME280;65825;52.232;10.566;2024-01-10T05:04:19;102447.28;;;-5.97;63.27
76853;BME280;65825;52.232;10.566;2024-01-10T05:06:44;102450.31;;;-5.89;62.82
76853;BME280;65825;52.232;10.566;2024-01-10T05:09:09;102453.47;;;-5.93;62.09
76853;BME280;65825;52.232;10.566;2024-01-10T05:11:35;102449.50;;;-5.88;62.14
76853;BME280;65825;52.232;10.566;2024-01-10T05:14:01;102453.59;;;-5.92;62.21
76853;BME280;65825;52.232;10.566;2024-01-10T05:16:27;102455.19;;;-6.07;62.46
76853;BME280;65825;52.232;10.566;2024-01-10T05:18:53;102453.06;;;-6.14;63.47
76853;BME280;65825;52.232;10.566;2024-01-10T05:21:18;102447.75;;;-6.30;64.57
76853;BME280;65825;52.232;10.566;2024-01-10T05:23:43;102443.09;;;-6.22;63.96
76853;BME280;65825;52.232;10.566;2024-01-10T05:26:08;102443.75;;;-6.12;63.28
76853;BME280;65825;52.232;10.566;2024-01-10T05:28:34;102438.00;;;-6.08;62.70
76853;BME280;65825;52.232;10.566;2024-01-10T05:30:59;102436.63;;;-6.03;63.05
76853;BME280;65825;52.232;10.566;2024-01-10T05:33:24;102450.75;;;-5.96;62.15
76853;BME280;65825;52.232;10.566;2024-01-10T05:35:50;102436.09;;;-5.97;62.11
76853;BME280;65825;52.232;10.566;2024-01-10T05:38:15;102443.53;;;-6.02;66.20
76853;BME280;65825;52.232;10.566;2024-01-10T05:40:41;102440.16;;;-5.02;70.43
76853;BME280;65825;52.232;10.566;2024-01-10T05:43:06;102430.38;;;-4.03;68.38
76853;BME280;65825;52.232;10.566;2024-01-10T05:45:38;102441.81;;;-3.18;68.04
76853;BME280;65825;52.232;10.566;2024-01-10T05:48:03;102440.28;;;-3.31;58.08
76853;BME280;65825;52.232;10.566;2024-01-10T05:50:29;102435.16;;;-3.63;55.52
76853;BME280;65825;52.232;10.566;2024-01-10T05:52:55;102444.81;;;-4.21;57.49
76853;BME280;65825;52.232;10.566;2024-01-10T05:55:20;102445.28;;;-4.73;58.53
76853;BME280;65825;52.232;10.566;2024-01-10T05:57:45;102444.06;;;-5.23;60.18
76853;BME280;65825;52.232;10.566;2024-01-10T06:00:11;102449.91;;;-5.26;60.92
76853;BME280;65825;52.232;10.566;2024-01-10T06:02:38;102449.81;;;-5.27;60.28
76853;BME280;65825;52.232;10.566;2024-01-10T06:05:06;102449.75;;;-5.56;61.72
76853;BME280;65825;52.232;10.566;2024-01-10T06:07:31;102453.91;;;-5.73;61.83
76853;BME280;65825;52.232;10.566;2024-01-10T06:09:56;102451.84;;;-5.64;61.17
76853;BME280;65825;52.232;10.566;2024-01-10T06:12:22;102449.72;;;-5.71;61.32
76853;BME280;65825;52.232;10.566;2024-01-10T06:14:47;102451.28;;;-5.87;61.53
76853;BME280;65825;52.232;10.566;2024-01-10T06:17:12;102446.44;;;-5.83;61.67
76853;BME280;65825;52.232;10.566;2024-01-10T06:19:37;102458.81;;;-5.90;61.04
76853;BME280;65825;52.232;10.566;2024-01-10T06:22:04;102461.72;;;-5.99;61.36
76853;BME280;65825;52.232;10.566;2024-01-10T06:24:29;102445.28;;;-6.01;61.23
76853;BME280;65825;52.232;10.566;2024-01-10T06:26:55;102465.25;;;-5.97;61.30
76853;BME280;65825;52.232;10.566;2024-01-10T06:29:20;102456.00;;;-6.21;62.43
76853;BME280;65825;52.232;10.566;2024-01-10T06:31:46;102460.25;;;-6.08;62.18
76853;BME280;65825;52.232;10.566;2024-01-10T06:34:11;102460.50;;;-5.91;62.23
76853;BME280;65825;52.232;10.566;2024-01-10T06:36:36;102451.59;;;-5.96;62.74
76853;BME280;65825;52.232;10.566;2024-01-10T06:39:02;102456.22;;;-6.05;62.53
76853;BME280;65825;52.232;10.566;2024-01-10T06:41:27;102455.41;;;-6.04;62.21
76853;BME280;65825;52.232;10.566;2024-01-10T06:43:52;102463.28;;;-6.01;62.74
76853;BME280;65825;52.232;10.566;2024-01-10T06:46:18;102451.66;;;-6.09;62.62
76853;BME280;65825;52.232;10.566;2024-01-10T06:48:44;102459.25;;;-6.10;62.20
76853;BME280;65825;52.232;10.566;2024-01-10T06:51:10;102455.56;;;-6.01;62.92
76853;BME280;65825;52.232;10.566;2024-01-10T06:53:37;102453.63;;;-6.05;62.33
76853;BME280;65825;52.232;10.566;2024-01-10T06:56:02;102455.91;;;-6.09;62.51
76853;BME280;65825;52.232;10.566;2024-01-10T06:58:27;102452.88;;;-6.30;64.23
76853;BME280;65825;52.232;10.566;2024-01-10T07:00:53;102459.00;;;-6.15;62.97
76853;BME280;65825;52.232;10.566;2024-01-10T07:03:18;102449.56;;;-6.14;63.34
76853;BME280;65825;52.232;10.566;2024-01-10T07:05:44;102456.63;;;-6.25;63.65
76853;BME280;65825;52.232;10.566;2024-01-10T07:08:09;102456.31;;;-6.16;62.89
76853;BME280;65825;52.232;10.566;2024-01-10T07:10:34;102457.34;;;-6.00;62.27
76853;BME280;65825;52.232;10.566;2024-01-10T07:13:00;102459.97;;;-6.13;62.97
76853;BME280;65825;52.232;10.566;2024-01-10T07:15:29;102464.88;;;-6.03;62.37
76853;BME280;65825;52.232;10.566;2024-01-10T07:17:54;102458.94;;;-6.02;61.87
76853;BME280;65825;52.232;10.566;2024-01-10T07:20:19;102462.63;;;-6.11;62.03
76853;BME280;65825;52.232;10.566;2024-01-10T07:22:44;102468.34;;;-6.02;62.03
76853;BME280;65825;52.232;10.566;2024-01-10T07:25:10;102475.75;;;-5.94;61.83
76853;BME280;65825;52.232;10.566;2024-01-10T07:27:41;102470.78;;;-5.91;61.99
76853;BME280;65825;52.232;10.566;2024-01-10T07:30:07;102459.91;;;-6.00;61.93
76853;BME280;65825;52.232;10.566;2024-01-10T07:32:38;102478.16;;;-5.82;61.99
76853;BME280;65825;52.232;10.566;2024-01-10T07:35:04;102475.91;;;-5.91;62.13
76853;BME280;65825;52.232;10.566;2024-01-10T07:37:29;102479.56;;;-5.87;62.14
76853;BME280;65825;52.232;10.566;2024-01-10T07:39:56;102484.00;;;-5.85;61.68
76853;BME280;65825;52.232;10.566;2024-01-10T07:42:22;102483.69;;;-6.04;62.31
76853;BME280;65825;52.232;10.566;2024-01-10T07:44:48;102479.63;;;-6.13;62.83
76853;BME280;65825;52.232;10.566;2024-01-10T07:47:13;102469.16;;;-6.16;63.18
76853;BME280;65825;52.232;10.566;2024-01-10T07:49:39;102478.13;;;-5.97;63.31
76853;BME280;65825;52.232;10.566;2024-01-10T07:52:04;102470.41;;;-5.97;62.47
76853;BME280;65825;52.232;10.566;2024-01-10T07:54:30;102475.97;;;-6.04;63.07
76853;BME280;65825;52.232;10.566;2024-01-10T07:56:57;102481.50;;;-5.98;62.79
76853;BME280;65825;52.232;10.566;2024-01-10T07:59:22;102480.41;;;-6.01;62.89
76853;BME280;65825;52.232;10.566;2024-01-10T08:01:55;102477.31;;;-5.96;63.46
76853;BME280;65825;52.232;10.566;2024-01-10T08:04:21;102476.19;;;-6.14;63.78
76853;BME280;65825;52.232;10.566;2024-01-10T08:06:48;102476.47;;;-6.09;64.69
76853;BME280;65825;52.232;10.566;2024-01-10T08:09:13;102477.41;;;-5.94;64.51
76853;BME280;65825;52.232;10.566;2024-01-10T08:11:39;102484.91;;;-5.57;64.13
76853;BME280;65825;52.232;10.566;2024-01-10T08:14:05;102478.00;;;-5.71;64.19
76853;BME280;65825;52.232;10.566;2024-01-10T08:16:30;102476.63;;;-5.51;63.82
76853;BME280;65825;52.232;10.566;2024-01-10T08:18:57;102472.06;;;-5.97;64.22
76853;BME280;65825;52.232;10.566;2024-01-10T08:21:22;102473.84;;;-5.69;65.10
76853;BME280;65825;52.232;10.566;2024-01-10T08:23:47;102477.81;;;-5.46;64.90
76853;BME280;65825;52.232;10.566;2024-01-10T08:26:13;102482.44;;;-5.41;64.08
76853;BME280;65825;52.232;10.566;2024-01-10T08:28:38;102479.69;;;-5.44;64.60
76853;BME280;65825;52.232;10.566;2024-01-10T08:31:03;102464.34;;;-5.70;64.94
76853;BME280;65825;52.232;10.566;2024-01-10T08:33:28;102459.22;;;-5.28;65.02
76853;BME280;65825;52.232;10.566;2024-01-10T08:35:55;102458.44;;;-5.27;64.09
76853;BME280;65825;52.232;10.566;2024-01-10T08:38:21;102452.91;;;-5.33;64.34
76853;BME280;65825;52.232;10.566;2024-01-10T08:40:46;102453.84;;;-5.03;63.65
76853;BME280;65825;52.232;10.566;2024-01-10T08:43:12;102460.75;;;-4.88;64.01
76853;BME280;65825;52.232;10.566;2024-01-10T08:45:38;102466.56;;;-5.34;65.67
76853;BME280;65825;52.232;10.566;2024-01-10T08:48:03;102463.34;;;-4.88;65.46
76853;BME280;65825;52.232;10.566;2024-01-10T08:50:29;102469.25;;;-4.45;64.84
76853;BME280;65825;52.232;10.566;2024-01-10T08:52:55;102454.13;;;-4.09;64.11
76853;BME280;65825;52.232;10.566;2024-01-10T08:55:21;102457.59;;;-4.08;64.19
76853;BME280;65825;52.232;10.566;2024-01-10T08:57:46;102460.31;;;-3.59;62.81
76853;BME280;65825;52.232;10.566;2024-01-10T09:00:14;102447.72;;;-3.37;62.86
76853;BME280;65825;52.232;10.566;2024-01-10T09:02:40;102455.53;;;-3.19;61.69
76853;BME280;65825;52.232;10.566;2024-01-10T09:05:05;102440.69;;;-2.90;61.33
76853;BME280;65825;52.232;10.566;2024-01-10T09:07:33;102446.28;;;-3.64;61.70
76853;BME280;65825;52.232;10.566;2024-01-10T09:09:58;102437.00;;;-3.60;63.29
76853;BME280;65825;52.232;10.566;2024-01-10T09:12:23;102445.41;;;-2.99;61.49
76853;BME280;65825;52.232;10.566;2024-01-10T09:14:48;102449.84;;;-2.96;62.30
76853;BME280;65825;52.232;10.566;2024-01-10T09:17:14;102443.47;;;-2.52;62.10
76853;BME280;65825;52.232;10.566;2024-01-10T09:19:39;102439.56;;;-2.95;62.46
76853;BME280;65825;52.232;10.566;2024-01-10T09:22:04;102442.72;;;-3.34;64.04
76853;BME280;65825;52.232;10.566;2024-01-10T09:24:30;102443.69;;;-2.98;63.58
76853;BME280;65825;52.232;10.566;2024-01-10T09:26:55;102436.44;;;-2.72;62.05
76853;BME280;65825;52.232;10.566;2024-01-10T09:29:21;102437.31;;;-1.63;59.98
76853;BME280;65825;52.232;10.566;2024-01-10T09:31:46;102443.53;;;-1.41;59.35
76853;BME280;65825;52.232;10.566;2024-01-10T09:34:12;102445.94;;;-1.06;57.76
76853;BME280;65825;52.232;10.566;2024-01-10T09:36:37;102436.09;;;-0.53;56.10
76853;BME280;65825;52.232;10.566;2024-01-10T09:39:02;102436.69;;;-0.60;54.73
76853;BME280;65825;52.232;10.566;2024-01-10T09:41:31;102436.50;;;-0.85;56.17
76853;BME280;65825;52.232;10.566;2024-01-10T09:43:59;102434.78;;;-0.64;56.61
76853;BME280;65825;52.232;10.566;2024-01-10T09:46:26;102431.88;;;-0.51;56.10
76853;BME280;65825;52.232;10.566;2024-01-10T09:48:55;102433.56;;;-0.31;54.02
76853;BME280;65825;52.232;10.566;2024-01-10T09:51:20;102429.84;;;-0.16;54.97
76853;BME280;65825;52.232;10.566;2024-01-10T09:53:48;102434.03;;;0.03;54.29
76853;BME280;65825;52.232;10.566;2024-01-10T09:56:15;102427.84;;;0.45;53.09
76853;BME280;65825;52.232;10.566;2024-01-10T09:58:43;102421.19;;;0.06;53.22
76853;BME280;65825;52.232;10.566;2024-01-10T10:01:10;102427.81;;;0.21;53.81
76853;BME280;65825;52.232;10.566;2024-01-10T10:03:36;102419.06;;;0.65;52.71
76853;BME280;65825;52.232;10.566;2024-01-10T10:06:04;102428.78;;;0.94;51.60
76853;BME280;65825;52.232;10.566;2024-01-10T10:08:29;102411.97;;;1.61;50.92
76853;BME280;65825;52.232;10.566;2024-01-10T10:10:55;102422.41;;;0.86;51.29
76853;BME280;65825;52.232;10.566;2024-01-10T10:13:27;102412.00;;;0.86;52.73
76853;BME280;65825;52.232;10.566;2024-01-10T10:16:00;102405.25;;;1.41;49.73
76853;BME280;65825;52.232;10.566;2024-01-10T10:18:26;102400.78;;;2.50;49.45
76853;BME280;65825;52.232;10.566;2024-01-10T10:21:12;102407.41;;;2.69;47.99
76853;BME280;65825;52.232;10.566;2024-01-10T10:23:39;102403.59;;;2.58;47.33
76853;BME280;65825;52.232;10.566;2024-01-10T10:26:14;102406.56;;;2.11;49.64
76853;BME280;65825;52.232;10.566;2024-01-10T10:28:45;102407.78;;;2.53;49.52
76853;BME280;65825;52.232;10.566;2024-01-10T10:31:11;102393.09;;;2.86;48.29
76853;BME280;65825;52.232;10.566;2024-01-10T10:33:36;102393.94;;;2.86;47.61
76853;BME280;65825;52.232;10.566;2024-01-10T10:36:02;102382.28;;;3.39;47.21
76853;BME280;65825;52.232;10.566;2024-01-10T10:38:28;102378.47;;;3.60;46.59
76853;BME280;65825;52.232;10.566;2024-01-10T10:40:53;102388.28;;;3.01;46.51
76853;BME280;65825;52.232;10.566;2024-01-10T10:43:21;102388.88;;;3.23;47.21
76853;BME280;65825;52.232;10.566;2024-01-10T10:45:49;102388.56;;;4.22;45.41
76853;BME280;65825;52.232;10.566;2024-01-10T10:48:19;102379.25;;;4.35;44.09
76853;BME280;65825;52.232;10.566;2024-01-10T10:51:19;102385.19;;;3.88;45.08
76853;BME280;65825;52.232;10.566;2024-01-10T10:53:49;102376.69;;;4.38;43.91
76853;BME280;65825;52.232;10.566;2024-01-10T10:56:15;102379.63;;;4.13;44.40
76853;BME280;65825;52.232;10.566;2024-01-10T10:58:44;102379.63;;;4.54;44.13
76853;BME280;65825;52.232;10.566;2024-01-10T11:01:13;102380.88;;;4.31;43.00
76853;BME280;65825;52.232;10.566;2024-01-10T11:03:40;102378.13;;;3.47;44.76
76853;BME280;65825;52.232;10.566;2024-01-10T11:06:06;102379.91;;;4.26;45.07
76853;BME280;65825;52.232;10.566;2024-01-10T11:08:50;102368.06;;;3.63;45.40
76853;BME280;65825;52.232;10.566;2024-01-10T11:12:01;102382.00;;;4.01;44.25
76853;BME280;65825;52.232;10.566;2024-01-10T11:17:26;102374.47;;;5.05;42.73
76853;BME280;65825;52.232;10.566;2024-01-10T11:20:15;102371.69;;;4.48;43.58
76853;BME280;65825;52.232;10.566;2024-01-10T11:25:31;102374.69;;;5.17;42.75
76853;BME280;65825;52.232;10.566;2024-01-10T11:27:57;102362.41;;;5.13;42.57
76853;BME280;65825;52.232;10.566;2024-01-10T11:30:35;102366.44;;;4.96;42.08
76853;BME280;65825;52.232;10.566;2024-01-10T11:33:30;102356.19;;;5.60;41.36
76853;BME280;65825;52.232;10.566;2024-01-10T11:38:49;102352.88;;;5.71;40.72
76853;BME280;65825;52.232;10.566;2024-01-10T11:41:23;102352.44;;;5.99;41.47
76853;BME280;65825;52.232;10.566;2024-01-10T11:46:48;102352.75;;;5.65;41.45
76853;BME280;65825;52.232;10.566;2024-01-10T11:49:16;102355.06;;;6.01;41.43
76853;BME280;65825;52.232;10.566;2024-01-10T11:51:43;102351.25;;;6.46;39.52
76853;BME280;65825;52.232;10.566;2024-01-10T11:54:09;102355.25;;;6.17;40.33
76853;BME280;65825;52.232;10.566;2024-01-10T11:56:41;102361.63;;;6.34;40.33
76853;BME280;65825;52.232;10.566;2024-01-10T12:01:34;102350.84;;;6.86;38.99
76853;BME280;65825;52.232;10.566;2024-01-10T12:04:00;102354.59;;;6.33;39.99
76853;BME280;65825;52.232;10.566;2024-01-10T12:06:26;102351.06;;;6.28;39.77
76853;BME280;65825;52.232;10.566;2024-01-10T12:08:51;102351.91;;;6.27;39.92
76853;BME280;65825;52.232;10.566;2024-01-10T12:11:17;102353.22;;;6.64;40.11
76853;BME280;65825;52.232;10.566;2024-01-10T12:13:43;102347.41;;;6.98;39.29
76853;BME280;65825;52.232;10.566;2024-01-10T12:16:09;102354.03;;;6.60;39.88
76853;BME280;65825;52.232;10.566;2024-01-10T12:18:35;102348.38;;;7.06;39.02
76853;BME280;65825;52.232;10.566;2024-01-10T12:21:00;102357.81;;;6.86;38.83
76853;BME280;65825;52.232;10.566;2024-01-10T12:23:25;102354.13;;;6.67;39.35
76853;BME280;65825;52.232;10.566;2024-01-10T12:25:56;102344.56;;;6.74;38.86
76853;BME280;65825;52.232;10.566;2024-01-10T12:28:21;102347.97;;;5.94;39.82
76853;BME280;65825;52.232;10.566;2024-01-10T12:30:47;102344.81;;;6.19;39.89
76853;BME280;65825;52.232;10.566;2024-01-10T12:33:12;102352.22;;;5.31;41.46
76853;BME280;65825;52.232;10.566;2024-01-10T12:35:38;102348.06;;;5.98;40.64
76853;BME280;65825;52.232;10.566;2024-01-10T12:38:06;102350.41;;;6.49;39.18
76853;BME280;65825;52.232;10.566;2024-01-10T12:40:32;102357.16;;;6.29;39.11
76853;BME280;65825;52.232;10.566;2024-01-10T12:43:07;102351.41;;;6.58;38.91
76853;BME280;65825;52.232;10.566;2024-01-10T12:45:34;102345.44;;;6.73;39.45
76853;BME280;65825;52.232;10.566;2024-01-10T12:48:00;102348.22;;;6.12;38.99
76853;BME280;65825;52.232;10.566;2024-01-10T12:50:25;102353.06;;;6.50;39.48
76853;BME280;65825;52.232;10.566;2024-01-10T12:52:51;102346.44;;;6.85;38.73